• Join FlightAware (Why Join?)
  • Login
  • US Flag 
10:47PM EDT


 

Airport Tracker/Info


-or-


 

Live Flight TrackerFlight Track Log ✈ SWA1521 ✈ 02-May-2013 ✈ KSEA - KSMF

Flight Track Log - Related Links

Times and Time Zones

All times are in EDT time to prevent confusion due to time zone crossing. See the SWA1521 flight status page for this flight to view local times or setup timezone preferences in your user account.

Time Position Orientation Groundspeed Altitude Reporting Facility
EDT Latitude Longitude Course Direction KTS MPH feet Rate Location/Type
09:17PM 47.4733 -122.3122 North 147 169 1,700  Level Seattle Center
09:17PM 47.4933 -122.3111 North 148 170 2,400 1,740 Climbing Seattle Center
09:18PM 47.5511 -122.3119 359° North 223 257 4,400 2,460 Climbing Seattle Center
09:19PM 47.6114 -122.2689 26° Northeast 292 336 7,500 3,420 Climbing Seattle Center
09:20PM 47.6014 -122.1622 98° East 294 338 10,900 3,120 Climbing Seattle Center
09:21PM 47.5153 -122.1297 166° South 331 381 13,500 2,820 Climbing Seattle Center
09:22PM 47.4164 -122.1167 175° South 353 406 16,700 2,640 Climbing Seattle Center
09:23PM 47.3144 -122.1100 177° South 372 428 18,900 2,400 Climbing Seattle Center
09:24PM 47.2061 -122.1011 177° South 388 447 21,600 2,400 Climbing Seattle Center
09:25PM 47.0964 -122.0931 177° South 395 455 23,900 2,160 Climbing Seattle Center
09:26PM 46.9817 -122.0822 176° South 410 472 26,000 1,920 Climbing Seattle Center
09:27PM 46.8642 -122.0739 177° South 424 488 27,900 1,800 Climbing Seattle Center
09:28PM 46.7450 -122.0644 177° South 433 498 29,700 1,860 Climbing Seattle Center
09:29PM 46.5989 -122.0522 177° South 442 509 31,800 2,100 Climbing Seattle Center
09:30PM 46.4786 -122.0442 177° South 438 504 34,000 1,860 Climbing Seattle Center
09:31PM 46.3619 -122.0342 177° South 428 493 35,600 1,440 Climbing Seattle Center
09:32PM 46.2442 -122.0264 177° South 429 494 37,000 1,200 Climbing Seattle Center
09:34PM 46.1164 -122.0150 176° South 426 490 38,100 900 Climbing Seattle Center
09:35PM 45.9956 -122.0053 177° South 433 498 38,900 420 Climbing Seattle Center
09:36PM 45.8750 -121.9964 177° South 434 499 39,000  Climbing Seattle Center
09:37PM 45.7533 -121.9892 178° South 438 504 39,000  Level Seattle Center
09:38PM 45.6325 -121.9814 177° South 436 502 39,000  Level Seattle Center
09:39PM 45.5114 -121.9731 177° South 435 501 39,000  Level Seattle Center
09:40PM 45.3883 -121.9658 178° South 440 506 39,000  Level Seattle Center
09:41PM 45.2658 -121.9567 177° South 441 507 39,000  Level Seattle Center
09:42PM 45.1397 -121.9492 178° South 454 522 39,000  Level Seattle Center
09:43PM 45.0156 -121.9414 177° South 450 518 39,000  Level Seattle Center
09:44PM 44.8903 -121.9336 177° South 452 520 39,000  Level Seattle Center
09:45PM 44.7606 -121.9253 177° South 433 498 39,000  Level Seattle Center
09:46PM 44.6358 -121.9156 177° South 444 511 39,000  Level Seattle Center
09:47PM 44.5094 -121.9083 178° South 449 517 39,000  Level Seattle Center
09:48PM 44.3850 -121.9003 177° South 448 516 39,000  Level Seattle Center
09:49PM 44.2611 -121.8933 178° South 446 513 39,000  Level Seattle Center
09:50PM 44.1358 -121.8858 178° South 448 516 39,000  Level Seattle Center
09:51PM 44.0147 -121.8794 178° South 447 514 39,000  Level Seattle Center
09:52PM 43.8900 -121.8711 177° South 449 517 39,000  Level Seattle Center
09:53PM 43.7492 -121.8647 178° South 460 529 39,000  Level Seattle Center
09:54PM 43.6236 -121.8564 177° South 454 522 39,000  Level Seattle Center
09:55PM 43.4981 -121.8497 178° South 454 522 39,000  Level Seattle Center
09:56PM 43.3719 -121.8403 177° South 455 524 39,000  Level Seattle Center
09:57PM 43.2453 -121.8353 178° South 458 527 39,000  Level Seattle Center
09:58PM 43.1175 -121.8256 177° South 462 532 39,000  Level Seattle Center
09:59PM 42.9906 -121.8197 178° South 458 527 39,000  Level Seattle Center
10:00PM 42.8608 -121.8136 178° South 464 534 39,000  Level Seattle Center
10:01PM 42.7081 -121.8044 177° South 459 528 39,000  Level Seattle Center
10:02PM 42.5803 -121.7956 177° South 458 527 39,000  Level Seattle Center
10:03PM 42.4525 -121.7872 177° South 458 527 39,000  Level Seattle Center
10:04PM 42.3250 -121.7797 178° South 456 525 39,000  Level Seattle Center
10:05PM 42.1964 -121.7711 177° South 456 525 39,000  Level Seattle Center
10:06PM 42.0647 -121.7636 178° South 461 531 39,000  Level Seattle Center
10:07PM 41.9350 -121.7575 178° South 456 525 39,000  Level Seattle Center
10:08PM 41.8072 -121.7503 178° South 456 525 39,000  Level Seattle Center
10:09PM 41.6794 -121.7422 177° South 457 526 39,000  Level Seattle Center
10:10PM 41.5514 -121.7361 178° South 460 529 39,000  Level Seattle Center
10:11PM 41.4219 -121.7272 177° South 462 532 39,000  Level Seattle Center
10:12PM 41.2928 -121.7208 178° South 464 534 39,000  Level Seattle Center
10:13PM 41.1650 -121.7139 178° South 461 531 39,000  Level Seattle Center
10:14PM 41.0358 -121.7067 178° South 462 532 39,000  Level Seattle Center
10:15PM 40.8992 -121.6967 177° South 462 532 39,000  Level Oakland Center
10:16PM 40.7694 -121.6900 178° South 464 534 39,000 -240 Level Oakland Center
10:17PM 40.6408 -121.6833 178° South 464 534 38,600 -1,620 Descending Oakland Center
10:18PM 40.5114 -121.6750 177° South 465 535 35,700 -3,000 Descending Oakland Center
10:19PM 40.3803 -121.6681 178° South 468 539 32,600 -2,820 Descending Oakland Center
10:20PM 40.2478 -121.6614 178° South 472 543 30,000 -2,460 Descending Oakland Center
10:21PM 40.1186 -121.6550 178° South 465 535 27,600 -2,340 Descending Oakland Center
10:22PM 39.9947 -121.6481 178° South 450 518 25,300 -2,220 Descending Oakland Center
10:23PM 39.8753 -121.6411 177° South 434 499 23,100 -2,160 Descending Oakland Center
10:24PM 39.7606 -121.6353 178° South 416 479 20,900 -2,280 Descending Oakland Center
10:25PM 39.6281 -121.6289 178° South 396 456 18,500 -2,100 Descending Oakland Center
10:26PM 39.5236 -121.6236 178° South 379 436 16,700 -1,860 Descending Oakland Center
10:27PM 39.4275 -121.6414 188° South 358 412 14,800 -1,800 Descending Oakland Center
10:28PM 39.3325 -121.6614 189° South 349 402 13,100 -1,800 Descending Oakland Center
10:29PM 39.2422 -121.6811 190° South 333 383 11,200 -1,560 Descending Oakland Center
10:30PM 39.1531 -121.7006 190° South 325 374 10,000 -780 Descending Oakland Center
10:31PM 39.0686 -121.7172 189° South 309 356 9,700 -1,020 Descending Oakland Center
10:32PM 38.9917 -121.7158 179° South 283 326 8,000 -1,680 Descending Oakland Center
10:34PM 38.9086 -121.7153 180° South 295 339 6,400 -1,440 Descending Oakland Center
10:35PM 38.8297 -121.7144 180° South 287 330 5,100 -1,200 Descending Oakland Center
10:36PM 38.7383 -121.7125 179° South 274 315 4,000 -780 Descending Oakland Center
10:37PM 38.6725 -121.7111 179° South 239 275 3,600 -540 Descending Oakland Center
10:38PM 38.6217 -121.6928 164° South 216 249 2,900 -900 Descending Oakland Center
10:39PM 38.6158 -121.6236 96° East 200 230 1,800 -1,080 Descending Oakland Center
10:40PM 38.6444 -121.6003 32° Northeast 168 193 800 -840 Descending Oakland Center
10:41PM 38.6881 -121.6022 358° North 156 180 200 -600 Descending Oakland Center